createdAt,value
2023-01-10T00:00:55.236Z,21.8
2023-01-10T00:01:57.545Z,21.8
2023-01-10T00:03:00.305Z,21.8
2023-01-10T00:04:03.013Z,21.8
2023-01-10T00:05:05.543Z,21.8
2023-01-10T00:06:08.079Z,21.8
2023-01-10T00:07:10.608Z,21.8
2023-01-10T00:08:12.837Z,21.8
2023-01-10T00:09:15.377Z,21.8
2023-01-10T00:10:17.982Z,21.8
2023-01-10T00:11:20.250Z,21.8
2023-01-10T00:12:22.776Z,21.8
2023-01-10T00:13:25.412Z,21.8
2023-01-10T00:14:27.991Z,21.8
2023-01-10T00:15:30.685Z,21.9
2023-01-10T00:16:33.210Z,21.9
2023-01-10T00:17:35.762Z,21.9
2023-01-10T00:18:38.304Z,21.9
2023-01-10T00:19:40.537Z,21.9
2023-01-10T00:20:43.055Z,21.9
2023-01-10T00:21:45.557Z,21.9
2023-01-10T00:22:48.068Z,21.9
2023-01-10T00:23:50.311Z,21.9
2023-01-10T00:24:52.862Z,21.9
2023-01-10T00:25:55.127Z,21.9
2023-01-10T00:26:57.754Z,21.9
2023-01-10T00:28:00.255Z,21.9
2023-01-10T00:29:02.800Z,21.9
2023-01-10T00:30:05.353Z,21.9
2023-01-10T00:31:08.252Z,21.9
2023-01-10T00:32:10.895Z,21.9
2023-01-10T00:33:13.476Z,21.9
2023-01-10T00:34:16.036Z,21.9
2023-01-10T00:35:18.581Z,21.9
2023-01-10T00:36:21.075Z,22
2023-01-10T00:37:23.322Z,22
2023-01-10T00:38:25.558Z,22
2023-01-10T00:39:28.134Z,22
2023-01-10T00:40:30.664Z,22
2023-01-10T00:41:32.659Z,22
2023-01-10T00:42:35.174Z,22
2023-01-10T00:43:37.693Z,22
2023-01-10T00:44:39.945Z,22
2023-01-10T00:45:41.903Z,22
2023-01-10T00:46:44.124Z,22
2023-01-10T00:47:46.616Z,22
2023-01-10T00:48:48.877Z,22
2023-01-10T00:49:51.432Z,22
2023-01-10T00:50:53.951Z,22
2023-01-10T00:51:56.198Z,22
2023-01-10T00:52:58.712Z,22
2023-01-10T00:54:00.989Z,22
2023-01-10T00:55:03.329Z,22
2023-01-10T00:56:05.577Z,22
2023-01-10T00:57:08.074Z,22
2023-01-10T00:58:10.591Z,22
2023-01-10T00:59:13.224Z,22
2023-01-10T01:00:15.741Z,22
2023-01-10T01:01:18.659Z,22
2023-01-10T01:02:22.021Z,22
2023-01-10T01:03:24.880Z,22.1
2023-01-10T01:04:27.198Z,22.1
2023-01-10T01:05:29.761Z,22.1
2023-01-10T01:06:32.004Z,22.1
2023-01-10T01:07:34.531Z,22.1
2023-01-10T01:08:36.811Z,22.1
2023-01-10T01:09:39.330Z,22.1
2023-01-10T01:10:41.557Z,22.1
2023-01-10T01:11:44.077Z,22.1
2023-01-10T01:12:46.613Z,22.1
2023-01-10T01:13:48.868Z,22.1
2023-01-10T01:14:51.378Z,22.1
2023-01-10T01:15:54.101Z,22.1
2023-01-10T01:16:56.743Z,22.1
2023-01-10T01:17:58.995Z,22.1
2023-01-10T01:19:01.516Z,22.1
2023-01-10T01:20:04.183Z,22.1
2023-01-10T01:21:06.782Z,22.1
2023-01-10T01:22:08.709Z,22.1
2023-01-10T01:23:11.259Z,22.1
2023-01-10T01:24:13.768Z,22.1
2023-01-10T01:25:16.290Z,22.1
2023-01-10T01:26:18.504Z,22.1
2023-01-10T01:27:21.016Z,22.1
2023-01-10T01:28:22.946Z,22.1
2023-01-10T01:30:30.175Z,22.2
2023-01-10T01:31:33.026Z,22.2
2023-01-10T01:32:36.012Z,22.2
2023-01-10T01:33:38.653Z,22.2
2023-01-10T01:34:40.885Z,22.2
2023-01-10T01:35:43.488Z,22.2
2023-01-10T01:36:46.271Z,22.2
2023-01-10T01:37:48.224Z,22.2
2023-01-10T01:38:50.459Z,22.2
2023-01-10T01:39:52.952Z,22.1
2023-01-10T01:40:55.199Z,22.1
2023-01-10T01:41:57.457Z,22.1
2023-01-10T01:43:00.000Z,22.1
2023-01-10T01:44:02.633Z,22.1
2023-01-10T01:45:05.141Z,22.1
2023-01-10T01:46:07.484Z,22.1
2023-01-10T01:47:10.201Z,22.1
2023-01-10T01:48:12.418Z,22.1
2023-01-10T01:49:14.654Z,22.2
2023-01-10T01:50:17.174Z,22.2
2023-01-10T01:51:19.762Z,22.2
2023-01-10T01:52:22.309Z,22.2
2023-01-10T01:53:24.540Z,22.2
2023-01-10T01:54:27.072Z,22.2
2023-01-10T01:55:28.752Z,22.2
2023-01-10T01:56:31.006Z,22.2
2023-01-10T01:57:33.498Z,22.2
2023-01-10T01:58:36.011Z,22.2
2023-01-10T01:59:38.523Z,22.2
2023-01-10T02:00:41.025Z,22.2
2023-01-10T02:01:43.880Z,22.2
2023-01-10T02:03:51.729Z,22.2
2023-01-10T02:04:54.458Z,22.2
2023-01-10T02:05:56.973Z,22.2
2023-01-10T02:06:59.568Z,22.2
2023-01-10T02:08:02.232Z,22.2
2023-01-10T02:09:04.516Z,22.2
2023-01-10T02:10:07.048Z,22.2
2023-01-10T02:11:09.265Z,22.2
2023-01-10T02:12:11.818Z,22.2
2023-01-10T02:13:14.041Z,22.2
2023-01-10T02:14:16.546Z,22.2
2023-01-10T02:15:19.061Z,22.2
2023-01-10T02:16:21.638Z,22.2
2023-01-10T02:17:24.280Z,22.2
2023-01-10T02:18:26.534Z,22.3
2023-01-10T02:19:29.068Z,22.3
2023-01-10T02:20:31.568Z,22.3
2023-01-10T02:21:34.068Z,22.3
2023-01-10T02:22:36.347Z,22.3
2023-01-10T02:23:38.630Z,22.3
2023-01-10T02:24:41.173Z,22.3
2023-01-10T02:25:43.525Z,22.3
2023-01-10T02:26:45.745Z,22.3
2023-01-10T02:27:48.255Z,22.3
2023-01-10T02:28:50.756Z,22.3
2023-01-10T02:29:53.270Z,22.2
2023-01-10T02:30:55.935Z,22.2
2023-01-10T02:31:58.639Z,22.2
2023-01-10T02:34:05.822Z,22.2
2023-01-10T02:35:08.363Z,22.2
2023-01-10T02:36:10.643Z,22.2
2023-01-10T02:37:12.600Z,22.2
2023-01-10T02:38:15.179Z,22.2
2023-01-10T02:39:17.728Z,22.2
2023-01-10T02:40:20.241Z,22.3
2023-01-10T02:41:22.481Z,22.3
2023-01-10T02:42:24.717Z,22.3
2023-01-10T02:43:27.221Z,22.3
2023-01-10T02:44:29.489Z,22.3
2023-01-10T02:45:31.715Z,22.3
2023-01-10T02:46:34.466Z,22.3
2023-01-10T02:47:36.823Z,22.3
2023-01-10T02:48:39.060Z,22.3
2023-01-10T02:49:41.259Z,22.3
2023-01-10T02:50:43.824Z,22.3
2023-01-10T02:51:46.088Z,22.3
2023-01-10T02:52:48.618Z,22.3
2023-01-10T02:53:51.183Z,22.3
2023-01-10T02:54:53.758Z,22.3
2023-01-10T02:55:56.262Z,22.2
2023-01-10T02:56:58.504Z,22.3
2023-01-10T02:58:01.010Z,22.2
2023-01-10T02:59:02.948Z,22.2
2023-01-10T03:00:05.441Z,22.2
2023-01-10T03:01:08.157Z,22.2
2023-01-10T03:02:11.090Z,22.3
2023-01-10T03:03:13.746Z,22.2
2023-01-10T03:04:16.240Z,22.3
2023-01-10T03:05:18.520Z,22.3
2023-01-10T03:06:20.761Z,22.3
2023-01-10T03:07:23.003Z,22.3
2023-01-10T03:08:25.572Z,22.3
2023-01-10T03:09:28.161Z,22.3
2023-01-10T03:10:30.708Z,22.3
2023-01-10T03:11:33.214Z,22.3
2023-01-10T03:12:35.717Z,22.3
2023-01-10T03:13:38.247Z,22.3
2023-01-10T03:14:40.779Z,22.3
2023-01-10T03:15:43.093Z,22.3
2023-01-10T03:16:45.499Z,22.3
2023-01-10T03:17:47.987Z,22.3
2023-01-10T03:18:50.466Z,22.3
2023-01-10T03:19:52.735Z,22.3
2023-01-10T03:20:54.995Z,22.3
2023-01-10T03:21:57.561Z,22.3
2023-01-10T03:23:00.056Z,22.3
2023-01-10T03:24:02.571Z,22.3
2023-01-10T03:25:05.019Z,22.3
2023-01-10T03:26:07.580Z,22.3
2023-01-10T03:27:10.087Z,22.3
2023-01-10T03:28:12.589Z,22.3
2023-01-10T03:29:15.099Z,22.3
2023-01-10T03:30:17.326Z,22.3
2023-01-10T03:31:19.724Z,22.3
2023-01-10T03:32:22.343Z,22.3
2023-01-10T03:33:24.892Z,22.3
2023-01-10T03:34:27.432Z,22.3
2023-01-10T03:35:29.642Z,22.3
2023-01-10T03:36:32.181Z,22.3
2023-01-10T03:37:34.436Z,22.3
2023-01-10T03:38:36.940Z,22.4
2023-01-10T03:39:39.176Z,22.3
2023-01-10T03:40:41.819Z,22.3
2023-01-10T03:41:44.425Z,22.3
2023-01-10T03:42:46.932Z,22.3
2023-01-10T03:43:49.161Z,22.3
2023-01-10T03:44:51.684Z,22.3
2023-01-10T03:45:53.922Z,22.3
2023-01-10T03:46:56.646Z,22.3
2023-01-10T03:47:59.150Z,22.3
2023-01-10T03:49:01.662Z,22.3
2023-01-10T03:50:03.617Z,22.3
2023-01-10T03:51:06.146Z,22.3
2023-01-10T03:52:08.653Z,22.3
2023-01-10T03:53:11.185Z,22.3
2023-01-10T03:54:13.667Z,22.3
2023-01-10T03:55:16.176Z,22.3
2023-01-10T03:56:18.421Z,22.3
2023-01-10T03:57:20.994Z,22.3
2023-01-10T03:58:23.516Z,22.3
2023-01-10T03:59:25.750Z,22.4
2023-01-10T04:00:28.006Z,22.4
2023-01-10T04:01:30.892Z,22.4
2023-01-10T04:02:33.785Z,22.4
2023-01-10T04:03:36.029Z,22.4
2023-01-10T04:04:38.557Z,22.4
2023-01-10T04:05:41.059Z,22.3
2023-01-10T04:06:43.305Z,22.3
2023-01-10T04:07:45.579Z,22.3
2023-01-10T04:08:47.809Z,22.3
2023-01-10T04:09:50.319Z,22.3
2023-01-10T04:10:52.821Z,22.3
2023-01-10T04:11:55.104Z,22.3
2023-01-10T04:12:57.683Z,22.3
2023-01-10T04:14:00.204Z,22.3
2023-01-10T04:15:02.504Z,22.3
2023-01-10T04:16:05.143Z,22.2
2023-01-10T04:17:07.503Z,22.2
2023-01-10T04:18:09.484Z,22.2
2023-01-10T04:19:12.008Z,22.2
2023-01-10T04:20:14.551Z,22.2
2023-01-10T04:21:17.043Z,22.2
2023-01-10T04:22:19.020Z,22.2
2023-01-10T04:23:21.521Z,22.2
2023-01-10T04:24:24.039Z,22.2
2023-01-10T04:25:26.561Z,22.2
2023-01-10T04:26:29.101Z,22.2
2023-01-10T04:27:31.385Z,22.2
2023-01-10T04:28:33.942Z,22.2
2023-01-10T04:29:36.311Z,22.2
2023-01-10T04:30:38.814Z,22.2
2023-01-10T04:31:41.695Z,22.2
2023-01-10T04:32:44.407Z,22.2
2023-01-10T04:33:46.905Z,22.2
2023-01-10T04:34:49.146Z,22.2
2023-01-10T04:35:51.439Z,22.1
2023-01-10T04:36:53.995Z,22.1
2023-01-10T04:37:56.225Z,22.1
2023-01-10T04:38:58.436Z,22.1
2023-01-10T04:40:00.976Z,22.1
2023-01-10T04:41:03.215Z,22.1
2023-01-10T04:42:05.732Z,22.1
2023-01-10T04:43:08.313Z,22.1
2023-01-10T04:44:10.876Z,22.1
2023-01-10T04:45:12.882Z,22.1
2023-01-10T04:46:15.390Z,22.1
2023-01-10T04:47:17.899Z,22.1
2023-01-10T04:48:20.418Z,22.1
2023-01-10T04:49:22.716Z,22.1
2023-01-10T04:50:25.233Z,22.1
2023-01-10T04:51:27.748Z,22.1
2023-01-10T04:52:30.009Z,22.1
2023-01-10T04:53:32.527Z,22.1
2023-01-10T04:54:35.028Z,22.1
2023-01-10T04:55:36.998Z,22
2023-01-10T04:56:39.501Z,22.1
2023-01-10T04:57:41.782Z,22
2023-01-10T04:58:44.364Z,22
2023-01-10T04:59:46.905Z,22
2023-01-10T05:00:49.139Z,22
2023-01-10T05:01:52.215Z,22
2023-01-10T05:02:55.501Z,22
2023-01-10T05:03:58.563Z,22
2023-01-10T05:05:01.127Z,22
2023-01-10T05:06:03.621Z,22
2023-01-10T05:07:05.872Z,22
2023-01-10T05:08:08.386Z,22
2023-01-10T05:09:10.621Z,22
2023-01-10T05:10:13.114Z,22
2023-01-10T05:11:15.397Z,22
2023-01-10T05:12:17.944Z,22
2023-01-10T05:13:20.183Z,22
2023-01-10T05:14:22.750Z,22
2023-01-10T05:15:25.335Z,22
2023-01-10T05:16:27.956Z,22
2023-01-10T05:17:30.371Z,22
2023-01-10T05:18:32.612Z,22
2023-01-10T05:19:35.140Z,22
2023-01-10T05:20:37.652Z,22
2023-01-10T05:21:40.172Z,22
2023-01-10T05:22:42.717Z,22
2023-01-10T05:23:45.212Z,22
2023-01-10T05:24:47.755Z,22
2023-01-10T05:25:50.276Z,22
2023-01-10T05:26:52.562Z,22
2023-01-10T05:27:54.796Z,22
2023-01-10T05:28:57.309Z,22
2023-01-10T05:29:59.546Z,22
2023-01-10T05:31:02.161Z,22
2023-01-10T05:32:04.689Z,22
2023-01-10T05:33:07.015Z,22
2023-01-10T05:34:08.706Z,22
2023-01-10T05:35:11.209Z,22
2023-01-10T05:36:13.704Z,22
2023-01-10T05:37:16.201Z,22
2023-01-10T05:38:18.714Z,22
2023-01-10T05:39:21.227Z,22
2023-01-10T05:40:23.467Z,22
2023-01-10T05:41:25.720Z,21.9
2023-01-10T05:42:28.287Z,22
2023-01-10T05:43:30.812Z,21.9
2023-01-10T05:44:33.061Z,21.9
2023-01-10T05:45:35.750Z,21.9
2023-01-10T05:46:38.499Z,21.9
2023-01-10T05:47:41.041Z,21.9
2023-01-10T05:48:43.281Z,21.9
2023-01-10T05:49:45.797Z,21.9
2023-01-10T05:50:48.296Z,21.9
2023-01-10T05:51:50.251Z,21.9
2023-01-10T05:52:52.755Z,21.9
2023-01-10T05:53:55.248Z,21.9
2023-01-10T05:54:57.195Z,21.9
2023-01-10T05:55:59.621Z,21.9
2023-01-10T05:57:02.239Z,21.9
2023-01-10T05:58:04.796Z,21.9
2023-01-10T06:00:12.021Z,21.9
2023-01-10T06:01:14.726Z,21.9
2023-01-10T06:02:17.502Z,21.9
2023-01-10T06:03:20.503Z,21.9
2023-01-10T06:04:23.072Z,21.9
2023-01-10T06:05:25.603Z,21.9
2023-01-10T06:06:28.140Z,21.9
2023-01-10T06:07:30.634Z,21.9
2023-01-10T06:08:32.838Z,21.9
2023-01-10T06:09:35.115Z,21.9
2023-01-10T06:10:37.647Z,21.9
2023-01-10T06:11:42.219Z,21.9
2023-01-10T06:12:44.473Z,21.9
2023-01-10T06:13:46.720Z,21.9
2023-01-10T06:14:49.276Z,21.9
2023-01-10T06:15:51.654Z,21.9
2023-01-10T06:16:54.100Z,21.9
2023-01-10T06:17:56.375Z,21.9
2023-01-10T06:18:58.635Z,21.9
2023-01-10T06:20:00.891Z,21.9
2023-01-10T06:21:03.406Z,21.9
2023-01-10T06:22:05.641Z,21.9
2023-01-10T06:23:07.621Z,21.9
2023-01-10T06:24:09.592Z,21.9
2023-01-10T06:25:11.901Z,21.9
2023-01-10T06:26:14.145Z,21.9
2023-01-10T06:27:16.523Z,21.9
2023-01-10T06:28:18.742Z,21.9
2023-01-10T06:29:20.997Z,21.9
2023-01-10T06:30:23.540Z,21.9
2023-01-10T06:31:26.290Z,21.9
2023-01-10T06:32:29.123Z,21.9
2023-01-10T06:33:31.695Z,21.9
2023-01-10T06:34:33.915Z,21.9
2023-01-10T06:35:36.143Z,21.9
2023-01-10T06:36:38.369Z,21.9
2023-01-10T06:37:40.625Z,21.9
2023-01-10T06:38:42.873Z,21.9
2023-01-10T06:39:45.402Z,21.9
2023-01-10T06:40:47.951Z,21.9
2023-01-10T06:41:50.238Z,21.9
2023-01-10T06:42:52.514Z,21.9
2023-01-10T06:43:55.028Z,21.9
2023-01-10T06:44:57.073Z,21.9
2023-01-10T06:45:59.746Z,21.9
2023-01-10T06:47:02.393Z,21.9
2023-01-10T06:48:04.653Z,21.9
2023-01-10T06:49:07.211Z,21.9
2023-01-10T06:50:09.708Z,21.9
2023-01-10T06:51:11.680Z,21.9
2023-01-10T06:52:14.199Z,21.9
2023-01-10T06:53:16.448Z,21.9
2023-01-10T06:54:18.952Z,21.9
2023-01-10T06:55:21.185Z,21.9
2023-01-10T06:56:23.433Z,21.9
2023-01-10T06:57:25.969Z,21.9
2023-01-10T06:58:28.474Z,21.9
2023-01-10T06:59:30.712Z,21.9
2023-01-10T07:00:33.273Z,21.9
2023-01-10T07:01:36.340Z,21.9
2023-01-10T07:02:39.224Z,21.9
2023-01-10T07:03:41.759Z,21.9
2023-01-10T07:04:44.552Z,21.9
2023-01-10T07:05:47.086Z,21.9
2023-01-10T07:06:49.322Z,21.9
2023-01-10T07:07:51.543Z,21.9
2023-01-10T07:08:54.045Z,21.9
2023-01-10T07:09:56.563Z,21.9
2023-01-10T07:10:59.078Z,21.9
2023-01-10T07:12:01.587Z,21.9
2023-01-10T07:13:03.862Z,21.9
2023-01-10T07:14:06.127Z,21.9
2023-01-10T07:15:08.382Z,21.8
2023-01-10T07:16:10.422Z,21.8
2023-01-10T07:17:13.139Z,21.8
2023-01-10T07:18:15.374Z,21.8
2023-01-10T07:19:17.936Z,21.8
2023-01-10T07:20:20.538Z,21.8
2023-01-10T07:21:23.041Z,21.8
2023-01-10T07:22:25.548Z,21.8
2023-01-10T07:23:27.777Z,21.8
2023-01-10T07:24:30.279Z,21.8
2023-01-10T07:25:32.770Z,21.8
2023-01-10T07:26:35.326Z,21.8
2023-01-10T07:27:37.641Z,21.8
2023-01-10T07:28:40.197Z,21.8
2023-01-10T07:29:42.729Z,21.8
2023-01-10T07:30:45.247Z,21.8
2023-01-10T07:31:47.798Z,21.8
2023-01-10T07:32:50.063Z,21.8
2023-01-10T07:33:52.626Z,21.8
2023-01-10T07:34:55.243Z,21.8
2023-01-10T07:35:57.824Z,21.8
2023-01-10T07:37:00.356Z,21.8
2023-01-10T07:38:02.578Z,21.8
2023-01-10T07:39:04.517Z,21.8
2023-01-10T07:40:07.024Z,21.8
2023-01-10T07:41:09.563Z,21.8
2023-01-10T07:42:12.100Z,21.8
2023-01-10T07:43:14.632Z,21.8
2023-01-10T07:44:16.868Z,21.8
2023-01-10T07:45:19.410Z,21.8
2023-01-10T07:46:21.749Z,21.8
2023-01-10T07:47:24.415Z,21.8
2023-01-10T07:48:26.703Z,21.8
2023-01-10T07:49:29.212Z,21.8
2023-01-10T07:50:31.797Z,21.8
2023-01-10T07:51:34.371Z,21.8
2023-01-10T07:52:36.891Z,21.8
2023-01-10T07:53:39.119Z,21.8
2023-01-10T07:54:41.641Z,21.8
2023-01-10T07:55:43.894Z,21.8
2023-01-10T07:56:46.410Z,21.8
2023-01-10T07:57:48.915Z,21.8
2023-01-10T07:58:51.151Z,21.8
2023-01-10T07:59:53.392Z,21.8
2023-01-10T08:00:56.090Z,21.8
2023-01-10T08:01:58.735Z,21.8
2023-01-10T08:03:01.438Z,21.8
2023-01-10T08:04:04.334Z,21.8
2023-01-10T08:05:06.860Z,21.8
2023-01-10T08:06:09.173Z,21.8
2023-01-10T08:07:11.486Z,21.8
2023-01-10T08:08:13.995Z,21.8
2023-01-10T08:09:15.957Z,21.8
2023-01-10T08:10:17.937Z,21.8
2023-01-10T08:11:20.179Z,21.8
2023-01-10T08:12:22.449Z,21.8
2023-01-10T08:13:24.204Z,21.8
2023-01-10T08:14:26.998Z,21.8
2023-01-10T08:15:29.660Z,21.8
2023-01-10T08:16:32.173Z,21.8
2023-01-10T08:17:33.854Z,21.8
2023-01-10T08:18:36.483Z,21.8
2023-01-10T08:19:38.720Z,21.8
2023-01-10T08:20:41.233Z,21.8
2023-01-10T08:21:43.533Z,21.8
2023-01-10T08:22:46.117Z,21.8
2023-01-10T08:23:48.344Z,21.8
2023-01-10T08:24:50.859Z,21.8
2023-01-10T08:25:53.383Z,21.8
2023-01-10T08:26:55.905Z,21.8
2023-01-10T08:27:58.420Z,21.8
2023-01-10T08:29:00.951Z,21.8
2023-01-10T08:30:03.207Z,21.8
2023-01-10T08:31:05.304Z,21.8
2023-01-10T08:32:08.064Z,21.8
2023-01-10T08:33:10.350Z,21.8
2023-01-10T08:34:12.877Z,21.8
2023-01-10T08:35:15.139Z,21.8
2023-01-10T08:36:17.650Z,21.8
2023-01-10T08:37:19.966Z,21.8
2023-01-10T08:38:22.269Z,21.8
2023-01-10T08:39:24.240Z,21.8
2023-01-10T08:40:26.761Z,21.8
2023-01-10T08:41:28.734Z,21.8
2023-01-10T08:42:30.979Z,21.8
2023-01-10T08:43:33.492Z,21.8
2023-01-10T08:44:35.773Z,21.8
2023-01-10T08:45:38.236Z,21.8
2023-01-10T08:46:41.027Z,21.8
2023-01-10T08:47:43.727Z,21.8
2023-01-10T08:48:45.740Z,21.8
2023-01-10T08:49:48.014Z,21.8
2023-01-10T08:50:50.261Z,21.8
2023-01-10T08:51:52.780Z,21.8
2023-01-10T08:52:55.682Z,21.8
2023-01-10T08:53:58.244Z,21.8
2023-01-10T08:55:00.829Z,21.8
2023-01-10T08:57:08.059Z,21.8
2023-01-10T08:58:10.591Z,21.8
2023-01-10T08:59:13.142Z,21.7
2023-01-10T09:00:15.433Z,21.8
2023-01-10T09:01:18.200Z,21.8
2023-01-10T09:02:21.327Z,21.8
2023-01-10T09:03:23.779Z,21.8
2023-01-10T09:04:26.029Z,21.8
2023-01-10T09:05:29.612Z,21.8
2023-01-10T09:06:32.131Z,21.7
2023-01-10T09:07:34.733Z,21.7
2023-01-10T09:08:37.293Z,21.7
2023-01-10T09:09:39.869Z,21.7
2023-01-10T09:10:42.400Z,21.7
2023-01-10T09:11:45.042Z,21.7
2023-01-10T09:12:47.601Z,21.7
2023-01-10T09:13:50.115Z,21.7
2023-01-10T09:14:52.363Z,21.7
2023-01-10T09:15:54.276Z,21.7
2023-01-10T09:16:56.658Z,21.7
2023-01-10T09:17:58.923Z,21.7
2023-01-10T09:19:01.161Z,21.7
2023-01-10T09:20:04.623Z,21.7
2023-01-10T09:21:07.007Z,21.7
2023-01-10T09:22:09.587Z,21.7
2023-01-10T09:23:11.835Z,21.7
2023-01-10T09:24:14.155Z,21.7
2023-01-10T09:25:16.503Z,21.7
2023-01-10T09:26:18.186Z,21.7
2023-01-10T09:27:20.698Z,21.7
2023-01-10T09:28:22.652Z,21.7
2023-01-10T09:29:25.211Z,21.7
2023-01-10T09:30:26.661Z,21.7
2023-01-10T09:31:29.435Z,21.7
2023-01-10T09:32:31.875Z,21.7
2023-01-10T09:34:39.100Z,21.7
2023-01-10T09:35:41.347Z,21.7
2023-01-10T09:36:43.319Z,21.7
2023-01-10T09:37:45.294Z,21.7
2023-01-10T09:38:47.547Z,21.7
2023-01-10T09:39:50.109Z,21.7
2023-01-10T09:40:52.688Z,21.7
2023-01-10T09:41:54.390Z,21.7
2023-01-10T09:42:56.659Z,21.7
2023-01-10T09:45:04.210Z,21.7
2023-01-10T09:46:06.743Z,21.7
2023-01-10T09:48:14.229Z,21.7
2023-01-10T09:49:16.773Z,21.7
2023-01-10T09:50:18.841Z,21.7
2023-01-10T09:51:21.375Z,21.7
2023-01-10T09:52:23.606Z,21.7
2023-01-10T09:53:25.861Z,21.7
2023-01-10T09:54:28.109Z,21.7
2023-01-10T09:56:35.117Z,21.7
2023-01-10T09:57:37.737Z,21.7
2023-01-10T09:58:40.290Z,21.7
2023-01-10T09:59:42.840Z,21.7
2023-01-10T10:00:45.452Z,21.7
2023-01-10T10:01:47.725Z,21.7
2023-01-10T10:02:50.100Z,21.7
2023-01-10T10:03:53.261Z,21.7
2023-01-10T10:04:56.078Z,21.7
2023-01-10T10:07:03.280Z,21.7
2023-01-10T10:08:05.610Z,21.8
2023-01-10T10:09:08.186Z,21.7
2023-01-10T10:10:09.874Z,21.7
2023-01-10T10:11:11.887Z,21.7
2023-01-10T10:12:14.446Z,21.7
2023-01-10T10:14:21.716Z,21.7
2023-01-10T10:15:24.478Z,21.7
2023-01-10T10:16:26.904Z,21.7
2023-01-10T10:17:29.072Z,21.7
2023-01-10T10:18:31.646Z,21.7
2023-01-10T10:19:33.922Z,21.7
2023-01-10T10:20:36.501Z,21.7
2023-01-10T10:21:38.755Z,21.7
2023-01-10T10:22:40.992Z,21.8
2023-01-10T10:23:43.567Z,21.7
2023-01-10T10:24:45.831Z,21.7
2023-01-10T10:25:48.375Z,21.7
2023-01-10T10:26:50.359Z,21.7
2023-01-10T10:27:52.599Z,21.7
2023-01-10T10:28:56.461Z,21.7
2023-01-10T10:29:59.016Z,21.7
2023-01-10T10:31:01.272Z,21.7
2023-01-10T10:32:03.534Z,21.7
2023-01-10T10:33:06.044Z,21.7
2023-01-10T10:34:08.608Z,21.7
2023-01-10T10:35:10.570Z,21.7
2023-01-10T10:36:12.839Z,21.7
2023-01-10T10:37:15.088Z,21.7
2023-01-10T10:38:17.661Z,21.7
2023-01-10T10:39:19.645Z,21.7
2023-01-10T10:40:22.218Z,21.7
2023-01-10T10:41:24.759Z,21.7
2023-01-10T10:42:27.058Z,21.7
2023-01-10T10:43:29.023Z,21.7
2023-01-10T10:44:31.616Z,21.7
2023-01-10T10:45:34.403Z,21.7
2023-01-10T10:46:36.990Z,21.7
2023-01-10T10:47:39.256Z,21.7
2023-01-10T10:48:41.760Z,21.7
2023-01-10T10:49:44.275Z,21.7
2023-01-10T10:50:46.492Z,21.7
2023-01-10T10:51:48.725Z,21.7
2023-01-10T10:52:51.267Z,21.7
2023-01-10T10:53:53.842Z,21.7
2023-01-10T10:54:56.565Z,21.7
2023-01-10T10:55:59.195Z,21.7
2023-01-10T10:57:01.782Z,21.7
2023-01-10T10:58:04.376Z,21.7
2023-01-10T10:59:06.661Z,21.7
2023-01-10T11:00:09.253Z,21.7
2023-01-10T11:01:11.341Z,21.7
2023-01-10T11:02:14.335Z,21.7
2023-01-10T11:03:16.727Z,21.7
2023-01-10T11:04:19.301Z,21.7
2023-01-10T11:05:22.196Z,21.6
2023-01-10T11:06:24.745Z,21.7
2023-01-10T11:07:27.260Z,21.7
2023-01-10T11:08:29.830Z,21.7
2023-01-10T11:09:32.072Z,21.7
2023-01-10T11:10:34.591Z,21.7
2023-01-10T11:11:37.116Z,21.7
2023-01-10T11:12:39.649Z,21.7
2023-01-10T11:13:42.201Z,21.7
2023-01-10T11:14:44.798Z,21.7
2023-01-10T11:15:47.380Z,21.6
2023-01-10T11:16:49.781Z,21.6
2023-01-10T11:17:52.127Z,21.7
2023-01-10T11:18:54.098Z,21.7
2023-01-10T11:19:55.788Z,21.6
2023-01-10T11:20:58.344Z,21.7
2023-01-10T11:22:00.353Z,21.7
2023-01-10T11:23:02.875Z,21.7
2023-01-10T11:24:05.125Z,21.7
2023-01-10T11:25:07.687Z,21.7
2023-01-10T11:26:10.231Z,21.6
2023-01-10T11:27:12.493Z,21.6
2023-01-10T11:28:14.470Z,21.6
2023-01-10T11:29:17.006Z,21.6
2023-01-10T11:30:19.553Z,21.6
2023-01-10T11:31:22.270Z,21.6
2023-01-10T11:32:24.953Z,21.6
2023-01-10T11:33:27.181Z,21.6
2023-01-10T11:34:29.718Z,21.7
2023-01-10T11:35:32.290Z,21.7
2023-01-10T11:36:34.573Z,21.7
2023-01-10T11:37:37.126Z,21.6
2023-01-10T11:38:39.655Z,21.7
2023-01-10T11:39:42.186Z,21.7
2023-01-10T11:40:44.480Z,21.7
2023-01-10T11:41:47.091Z,21.7
2023-01-10T11:42:49.606Z,21.7
2023-01-10T11:43:52.117Z,21.6
2023-01-10T11:44:54.663Z,21.7
2023-01-10T11:45:57.091Z,21.7
2023-01-10T11:46:59.876Z,21.6
2023-01-10T11:48:01.880Z,21.6
2023-01-10T11:50:08.877Z,21.6
2023-01-10T11:51:11.441Z,21.6
2023-01-10T11:52:13.972Z,21.7
2023-01-10T11:53:16.234Z,21.6
2023-01-10T11:54:18.767Z,21.6
2023-01-10T11:55:21.112Z,21.6
2023-01-10T11:56:23.363Z,21.6
2023-01-10T11:57:25.653Z,21.6
2023-01-10T11:58:27.892Z,21.6
2023-01-10T11:59:30.396Z,21.6
2023-01-10T12:00:32.951Z,21.6
2023-01-10T12:01:35.802Z,21.6
2023-01-10T12:02:38.791Z,21.6
2023-01-10T12:03:41.476Z,21.6
2023-01-10T12:04:44.005Z,21.6
2023-01-10T12:05:46.541Z,21.6
2023-01-10T12:06:48.769Z,21.6
2023-01-10T12:07:51.276Z,21.7
2023-01-10T12:08:53.805Z,21.6
2023-01-10T12:09:56.327Z,21.6
2023-01-10T12:10:58.626Z,21.6
2023-01-10T12:12:01.214Z,21.6
2023-01-10T12:13:03.471Z,21.6
2023-01-10T12:14:05.450Z,21.6
2023-01-10T12:15:07.956Z,21.6
2023-01-10T12:16:10.199Z,21.6
2023-01-10T12:17:13.290Z,21.6
2023-01-10T12:18:15.865Z,21.6
2023-01-10T12:19:18.118Z,21.6
2023-01-10T12:20:20.388Z,21.6
2023-01-10T12:21:22.357Z,21.6
2023-01-10T12:22:24.603Z,21.6
2023-01-10T12:23:26.883Z,21.6
2023-01-10T12:24:29.428Z,21.6
2023-01-10T12:25:31.153Z,21.6
2023-01-10T12:26:33.383Z,21.6
2023-01-10T12:27:35.658Z,21.6
2023-01-10T12:28:38.232Z,21.6
2023-01-10T12:29:40.737Z,21.6
2023-01-10T12:30:43.174Z,21.6
2023-01-10T12:31:45.861Z,21.6
2023-01-10T12:32:48.419Z,21.6
2023-01-10T12:33:51.008Z,21.6
2023-01-10T12:34:53.697Z,21.6
2023-01-10T12:35:57.101Z,21.6
2023-01-10T12:36:59.634Z,21.6
2023-01-10T12:38:02.166Z,21.6
2023-01-10T12:39:04.182Z,21.6
2023-01-10T12:40:06.251Z,21.6
2023-01-10T12:41:08.798Z,21.6
2023-01-10T12:42:11.356Z,21.6
2023-01-10T12:43:13.901Z,21.6
2023-01-10T12:44:16.196Z,21.6
2023-01-10T12:45:18.771Z,21.6
2023-01-10T12:47:26.559Z,21.6
2023-01-10T12:48:29.006Z,21.6
2023-01-10T12:49:31.371Z,21.6
2023-01-10T12:50:33.732Z,21.6
2023-01-10T12:51:35.983Z,21.6
2023-01-10T12:52:37.938Z,21.6
2023-01-10T12:53:40.598Z,21.6
2023-01-10T12:54:43.451Z,21.6
2023-01-10T12:55:46.643Z,21.6
2023-01-10T12:56:49.672Z,21.6
2023-01-10T12:57:53.332Z,21.6
2023-01-10T12:58:55.720Z,21.6
2023-01-10T12:59:57.998Z,21.6
2023-01-10T13:01:01.012Z,21.6
2023-01-10T13:02:04.340Z,21.6
2023-01-10T13:03:07.170Z,21.6
2023-01-10T13:04:09.601Z,21.7
2023-01-10T13:05:12.216Z,21.6
2023-01-10T13:06:14.918Z,21.6
2023-01-10T13:07:17.218Z,21.6
2023-01-10T13:08:19.192Z,21.6
2023-01-10T13:09:21.461Z,21.6
2023-01-10T13:10:23.730Z,21.6
2023-01-10T13:11:25.719Z,21.6
2023-01-10T13:12:28.237Z,21.6
2023-01-10T13:13:30.177Z,21.6
2023-01-10T13:14:32.430Z,21.6
2023-01-10T13:15:34.974Z,21.6
2023-01-10T13:16:37.489Z,21.6
2023-01-10T13:17:39.457Z,21.6
2023-01-10T13:18:42.015Z,21.6
2023-01-10T13:19:44.267Z,21.6
2023-01-10T13:20:46.916Z,21.6
2023-01-10T13:21:49.482Z,21.6
2023-01-10T13:22:51.994Z,21.6
2023-01-10T13:23:53.960Z,21.6
2023-01-10T13:24:56.494Z,21.6
2023-01-10T13:25:58.759Z,21.6
2023-01-10T13:27:00.780Z,21.6
2023-01-10T13:28:03.309Z,21.6
2023-01-10T13:29:05.814Z,21.6
2023-01-10T13:30:08.610Z,21.6
2023-01-10T13:31:10.834Z,21.6
2023-01-10T13:32:13.291Z,21.6
2023-01-10T13:33:16.004Z,21.6
2023-01-10T13:34:18.615Z,21.6
2023-01-10T13:35:20.943Z,21.6
2023-01-10T13:36:23.543Z,21.6
2023-01-10T13:37:25.766Z,21.6
2023-01-10T13:38:28.335Z,21.6
2023-01-10T13:39:30.576Z,21.6
2023-01-10T13:40:33.090Z,21.6
2023-01-10T13:41:35.349Z,21.6
2023-01-10T13:42:37.869Z,21.6
2023-01-10T13:43:40.134Z,21.6
2023-01-10T13:44:41.896Z,21.6
2023-01-10T13:45:43.586Z,21.6
2023-01-10T13:46:45.928Z,21.6
2023-01-10T13:47:48.245Z,21.6
2023-01-10T13:48:50.592Z,21.6
2023-01-10T13:49:53.119Z,21.6
2023-01-10T13:50:55.424Z,21.6
2023-01-10T13:51:57.979Z,21.6
2023-01-10T13:52:59.924Z,21.6
2023-01-10T13:54:02.180Z,21.6
2023-01-10T13:55:04.512Z,21.6
2023-01-10T13:56:06.754Z,21.6
2023-01-10T13:57:08.971Z,21.6
2023-01-10T13:58:11.491Z,21.6
2023-01-10T13:59:14.002Z,21.6
2023-01-10T14:00:16.261Z,21.6
2023-01-10T14:01:18.775Z,21.6
2023-01-10T14:02:22.008Z,21.6
2023-01-10T14:03:24.690Z,21.6
2023-01-10T14:04:26.819Z,21.6
2023-01-10T14:05:29.040Z,21.6
2023-01-10T14:06:31.318Z,21.6
2023-01-10T14:07:33.896Z,21.6
2023-01-10T14:08:36.431Z,21.6
2023-01-10T14:09:38.702Z,21.6
2023-01-10T14:10:41.279Z,21.6